Benjamin, Utah
Current Conditions -  °F | °C
As of 4:48 PM on Wednesday 28 Jan 2015 (Local Time) from KPVU Reporting Station
Broken Clouds Broken Clouds  
Wind Chill: 39°   Ceiling: 6500
Heat Index: 45°   Visibility: 10mi
Dew Point: 34°   Wind: 12mph
Humidity: 66%   Direction: 310°NW
Pressure: 30.28"   Gusts: NA
Location:  40.1192°N, 111.689°W
Report Text: KPVU 282348Z 31010KT 10SM BKN065 07/01 A3028
Loading
Personal Weather Stations






























Interactive Weather Map New forecast layout! Learn more

10-Day Weather Forecast

Advertisements
Track Severe Weather on mobile